<?xml version="1.0" encoding="UTF-8"?>
<gpx version="1.0" creator="Gaggle https://github.com/geeksville/Gaggle" xmlns:xsi="http://www.w3.org/2001/XMLSchema-instance" xmlns="http://www.topografix.com/GPX/1/0" xsi:schemaLocation="http://www.topografix.com/GPX/1/0 http://www.topografix.com/GPX/1/0/gpx.xsd">
<trk>
	<name>Jorgev's flight</name>
	<desc>
	Pilot name:	Jorgev
	Pilot ID:	
	Glider type:	Rush 2
	</desc>
	<trkseg>
		<trkpt lat="42.874330" lon="-5.374084">
			<ele>1643.000000</ele>
		<time>2015-11-30T04:18:50Z</time>
		</trkpt>

		<trkpt lat="42.874294" lon="-5.374084">
			<ele>1629.000000</ele>
		<time>2015-11-30T04:19:23Z</time>
		</trkpt>

		<trkpt lat="42.874278" lon="-5.374051">
			<ele>1624.000000</ele>
		<time>2015-11-30T04:19:34Z</time>
		</trkpt>

		<trkpt lat="42.874249" lon="-5.374024">
			<ele>1624.000000</ele>
		<time>2015-11-30T04:19:43Z</time>
		</trkpt>

		<trkpt lat="42.874231" lon="-5.373941">
			<ele>1622.000000</ele>
		<time>2015-11-30T04:19:47Z</time>
		</trkpt>

		<trkpt lat="42.874238" lon="-5.373981">
			<ele>1623.000000</ele>
		<time>2015-11-30T04:19:51Z</time>
		</trkpt>

		<trkpt lat="42.874272" lon="-5.374065">
			<ele>1622.000000</ele>
		<time>2015-11-30T04:20:33Z</time>
		</trkpt>

		<trkpt lat="42.874301" lon="-5.374055">
			<ele>1625.000000</ele>
		<time>2015-11-30T04:21:17Z</time>
		</trkpt>

		<trkpt lat="42.874272" lon="-5.374083">
			<ele>1625.000000</ele>
		<time>2015-11-30T04:21:32Z</time>
		</trkpt>

		<trkpt lat="42.874276" lon="-5.374132">
			<ele>1623.000000</ele>
		<time>2015-11-30T04:24:15Z</time>
		</trkpt>

		<trkpt lat="42.874270" lon="-5.374173">
			<ele>1624.000000</ele>
		<time>2015-11-30T04:24:19Z</time>
		</trkpt>

		<trkpt lat="42.874268" lon="-5.374264">
			<ele>1624.000000</ele>
		<time>2015-11-30T04:24:22Z</time>
		</trkpt>

		<trkpt lat="42.874266" lon="-5.374466">
			<ele>1620.000000</ele>
		<time>2015-11-30T04:24:25Z</time>
		</trkpt>

		<trkpt lat="42.874184" lon="-5.374772">
			<ele>1617.000000</ele>
		<time>2015-11-30T04:24:28Z</time>
		</trkpt>

		<trkpt lat="42.874092" lon="-5.375072">
			<ele>1622.000000</ele>
		<time>2015-11-30T04:24:31Z</time>
		</trkpt>

		<trkpt lat="42.873980" lon="-5.375365">
			<ele>1612.000000</ele>
		<time>2015-11-30T04:24:34Z</time>
		</trkpt>

		<trkpt lat="42.873822" lon="-5.375586">
			<ele>1610.000000</ele>
		<time>2015-11-30T04:24:37Z</time>
		</trkpt>

		<trkpt lat="42.873617" lon="-5.375825">
			<ele>1607.000000</ele>
		<time>2015-11-30T04:24:40Z</time>
		</trkpt>

		<trkpt lat="42.873430" lon="-5.376035">
			<ele>1602.000000</ele>
		<time>2015-11-30T04:24:43Z</time>
		</trkpt>

		<trkpt lat="42.873232" lon="-5.376245">
			<ele>1597.000000</ele>
		<time>2015-11-30T04:24:46Z</time>
		</trkpt>

		<trkpt lat="42.873071" lon="-5.376456">
			<ele>1595.000000</ele>
		<time>2015-11-30T04:24:49Z</time>
		</trkpt>

		<trkpt lat="42.872859" lon="-5.376634">
			<ele>1591.000000</ele>
		<time>2015-11-30T04:24:52Z</time>
		</trkpt>

		<trkpt lat="42.872715" lon="-5.376846">
			<ele>1588.000000</ele>
		<time>2015-11-30T04:24:55Z</time>
		</trkpt>

		<trkpt lat="42.872556" lon="-5.377070">
			<ele>1584.000000</ele>
		<time>2015-11-30T04:24:58Z</time>
		</trkpt>

		<trkpt lat="42.872373" lon="-5.377260">
			<ele>1580.000000</ele>
		<time>2015-11-30T04:25:01Z</time>
		</trkpt>

		<trkpt lat="42.872198" lon="-5.377397">
			<ele>1581.000000</ele>
		<time>2015-11-30T04:25:04Z</time>
		</trkpt>

		<trkpt lat="42.871946" lon="-5.377472">
			<ele>1580.000000</ele>
		<time>2015-11-30T04:25:08Z</time>
		</trkpt>

		<trkpt lat="42.871749" lon="-5.377537">
			<ele>1580.000000</ele>
		<time>2015-11-30T04:25:11Z</time>
		</trkpt>

		<trkpt lat="42.871539" lon="-5.377587">
			<ele>1579.000000</ele>
		<time>2015-11-30T04:25:14Z</time>
		</trkpt>

		<trkpt lat="42.871332" lon="-5.377520">
			<ele>1579.000000</ele>
		<time>2015-11-30T04:25:17Z</time>
		</trkpt>

		<trkpt lat="42.871168" lon="-5.377343">
			<ele>1576.000000</ele>
		<time>2015-11-30T04:25:20Z</time>
		</trkpt>

		<trkpt lat="42.871051" lon="-5.377091">
			<ele>1574.000000</ele>
		<time>2015-11-30T04:25:23Z</time>
		</trkpt>

		<trkpt lat="42.870946" lon="-5.376816">
			<ele>1572.000000</ele>
		<time>2015-11-30T04:25:26Z</time>
		</trkpt>

		<trkpt lat="42.870826" lon="-5.376563">
			<ele>1567.000000</ele>
		<time>2015-11-30T04:25:29Z</time>
		</trkpt>

		<trkpt lat="42.870759" lon="-5.376271">
			<ele>1568.000000</ele>
		<time>2015-11-30T04:25:32Z</time>
		</trkpt>

		<trkpt lat="42.870710" lon="-5.375994">
			<ele>1572.000000</ele>
		<time>2015-11-30T04:25:35Z</time>
		</trkpt>

		<trkpt lat="42.870677" lon="-5.375693">
			<ele>1568.000000</ele>
		<time>2015-11-30T04:25:38Z</time>
		</trkpt>

		<trkpt lat="42.870664" lon="-5.375435">
			<ele>1565.000000</ele>
		<time>2015-11-30T04:25:41Z</time>
		</trkpt>

		<trkpt lat="42.870660" lon="-5.375160">
			<ele>1560.000000</ele>
		<time>2015-11-30T04:25:44Z</time>
		</trkpt>

		<trkpt lat="42.870614" lon="-5.374873">
			<ele>1557.000000</ele>
		<time>2015-11-30T04:25:47Z</time>
		</trkpt>

		<trkpt lat="42.870537" lon="-5.374570">
			<ele>1544.000000</ele>
		<time>2015-11-30T04:25:50Z</time>
		</trkpt>

		<trkpt lat="42.870478" lon="-5.374273">
			<ele>1527.000000</ele>
		<time>2015-11-30T04:25:53Z</time>
		</trkpt>

		<trkpt lat="42.870417" lon="-5.373975">
			<ele>1521.000000</ele>
		<time>2015-11-30T04:25:56Z</time>
		</trkpt>

		<trkpt lat="42.870299" lon="-5.373737">
			<ele>1516.000000</ele>
		<time>2015-11-30T04:25:59Z</time>
		</trkpt>

		<trkpt lat="42.870152" lon="-5.373506">
			<ele>1512.000000</ele>
		<time>2015-11-30T04:26:02Z</time>
		</trkpt>

		<trkpt lat="42.869996" lon="-5.373301">
			<ele>1508.000000</ele>
		<time>2015-11-30T04:26:05Z</time>
		</trkpt>

		<trkpt lat="42.869863" lon="-5.373044">
			<ele>1505.000000</ele>
		<time>2015-11-30T04:26:08Z</time>
		</trkpt>

		<trkpt lat="42.869755" lon="-5.372759">
			<ele>1501.000000</ele>
		<time>2015-11-30T04:26:11Z</time>
		</trkpt>

		<trkpt lat="42.869635" lon="-5.372496">
			<ele>1499.000000</ele>
		<time>2015-11-30T04:26:14Z</time>
		</trkpt>

		<trkpt lat="42.869518" lon="-5.372235">
			<ele>1495.000000</ele>
		<time>2015-11-30T04:26:17Z</time>
		</trkpt>

		<trkpt lat="42.869401" lon="-5.371974">
			<ele>1493.000000</ele>
		<time>2015-11-30T04:26:20Z</time>
		</trkpt>

		<trkpt lat="42.869312" lon="-5.371687">
			<ele>1486.000000</ele>
		<time>2015-11-30T04:26:23Z</time>
		</trkpt>

		<trkpt lat="42.869202" lon="-5.371415">
			<ele>1482.000000</ele>
		<time>2015-11-30T04:26:26Z</time>
		</trkpt>

		<trkpt lat="42.869087" lon="-5.371187">
			<ele>1479.000000</ele>
		<time>2015-11-30T04:26:29Z</time>
		</trkpt>

		<trkpt lat="42.868958" lon="-5.370933">
			<ele>1476.000000</ele>
		<time>2015-11-30T04:26:32Z</time>
		</trkpt>

		<trkpt lat="42.868816" lon="-5.370696">
			<ele>1476.000000</ele>
		<time>2015-11-30T04:26:35Z</time>
		</trkpt>

		<trkpt lat="42.868633" lon="-5.370544">
			<ele>1475.000000</ele>
		<time>2015-11-30T04:26:38Z</time>
		</trkpt>

		<trkpt lat="42.868471" lon="-5.370377">
			<ele>1473.000000</ele>
		<time>2015-11-30T04:26:41Z</time>
		</trkpt>

		<trkpt lat="42.868344" lon="-5.370166">
			<ele>1467.000000</ele>
		<time>2015-11-30T04:26:44Z</time>
		</trkpt>

		<trkpt lat="42.868211" lon="-5.369851">
			<ele>1460.000000</ele>
		<time>2015-11-30T04:26:47Z</time>
		</trkpt>

		<trkpt lat="42.868059" lon="-5.369547">
			<ele>1456.000000</ele>
		<time>2015-11-30T04:26:50Z</time>
		</trkpt>

		<trkpt lat="42.867949" lon="-5.369229">
			<ele>1455.000000</ele>
		<time>2015-11-30T04:26:53Z</time>
		</trkpt>

		<trkpt lat="42.867831" lon="-5.368949">
			<ele>1454.000000</ele>
		<time>2015-11-30T04:26:56Z</time>
		</trkpt>

		<trkpt lat="42.867739" lon="-5.368635">
			<ele>1448.000000</ele>
		<time>2015-11-30T04:26:59Z</time>
		</trkpt>

		<trkpt lat="42.867627" lon="-5.368355">
			<ele>1444.000000</ele>
		<time>2015-11-30T04:27:02Z</time>
		</trkpt>

		<trkpt lat="42.867522" lon="-5.368110">
			<ele>1440.000000</ele>
		<time>2015-11-30T04:27:05Z</time>
		</trkpt>

		<trkpt lat="42.867353" lon="-5.367880">
			<ele>1435.000000</ele>
		<time>2015-11-30T04:27:08Z</time>
		</trkpt>

		<trkpt lat="42.867185" lon="-5.367642">
			<ele>1432.000000</ele>
		<time>2015-11-30T04:27:11Z</time>
		</trkpt>

		<trkpt lat="42.866980" lon="-5.367439">
			<ele>1430.000000</ele>
		<time>2015-11-30T04:27:14Z</time>
		</trkpt>

		<trkpt lat="42.866776" lon="-5.367064">
			<ele>1424.000000</ele>
		<time>2015-11-30T04:27:18Z</time>
		</trkpt>

		<trkpt lat="42.866626" lon="-5.366804">
			<ele>1420.000000</ele>
		<time>2015-11-30T04:27:21Z</time>
		</trkpt>

		<trkpt lat="42.866451" lon="-5.366539">
			<ele>1417.000000</ele>
		<time>2015-11-30T04:27:24Z</time>
		</trkpt>

		<trkpt lat="42.866280" lon="-5.366366">
			<ele>1413.000000</ele>
		<time>2015-11-30T04:27:27Z</time>
		</trkpt>

		<trkpt lat="42.866103" lon="-5.366173">
			<ele>1408.000000</ele>
		<time>2015-11-30T04:27:30Z</time>
		</trkpt>

		<trkpt lat="42.865935" lon="-5.365966">
			<ele>1404.000000</ele>
		<time>2015-11-30T04:27:33Z</time>
		</trkpt>

		<trkpt lat="42.865778" lon="-5.365772">
			<ele>1399.000000</ele>
		<time>2015-11-30T04:27:36Z</time>
		</trkpt>

		<trkpt lat="42.865632" lon="-5.365509">
			<ele>1396.000000</ele>
		<time>2015-11-30T04:27:39Z</time>
		</trkpt>

		<trkpt lat="42.865484" lon="-5.365230">
			<ele>1393.000000</ele>
		<time>2015-11-30T04:27:42Z</time>
		</trkpt>

		<trkpt lat="42.865369" lon="-5.364971">
			<ele>1388.000000</ele>
		<time>2015-11-30T04:27:45Z</time>
		</trkpt>

		<trkpt lat="42.865198" lon="-5.364711">
			<ele>1383.000000</ele>
		<time>2015-11-30T04:27:48Z</time>
		</trkpt>

		<trkpt lat="42.865034" lon="-5.364458">
			<ele>1376.000000</ele>
		<time>2015-11-30T04:27:51Z</time>
		</trkpt>

		<trkpt lat="42.864828" lon="-5.364195">
			<ele>1370.000000</ele>
		<time>2015-11-30T04:27:54Z</time>
		</trkpt>

		<trkpt lat="42.864651" lon="-5.363964">
			<ele>1367.000000</ele>
		<time>2015-11-30T04:27:57Z</time>
		</trkpt>

		<trkpt lat="42.864438" lon="-5.363743">
			<ele>1365.000000</ele>
		<time>2015-11-30T04:28:00Z</time>
		</trkpt>

		<trkpt lat="42.864277" lon="-5.363476">
			<ele>1360.000000</ele>
		<time>2015-11-30T04:28:03Z</time>
		</trkpt>

		<trkpt lat="42.864124" lon="-5.363189">
			<ele>1357.000000</ele>
		<time>2015-11-30T04:28:06Z</time>
		</trkpt>

		<trkpt lat="42.864011" lon="-5.362941">
			<ele>1356.000000</ele>
		<time>2015-11-30T04:28:09Z</time>
		</trkpt>

		<trkpt lat="42.864009" lon="-5.362607">
			<ele>1351.000000</ele>
		<time>2015-11-30T04:28:12Z</time>
		</trkpt>

		<trkpt lat="42.864047" lon="-5.362262">
			<ele>1349.000000</ele>
		<time>2015-11-30T04:28:15Z</time>
		</trkpt>

		<trkpt lat="42.863950" lon="-5.361961">
			<ele>1347.000000</ele>
		<time>2015-11-30T04:28:18Z</time>
		</trkpt>

		<trkpt lat="42.863788" lon="-5.361695">
			<ele>1344.000000</ele>
		<time>2015-11-30T04:28:21Z</time>
		</trkpt>

		<trkpt lat="42.863535" lon="-5.361667">
			<ele>1341.000000</ele>
		<time>2015-11-30T04:28:24Z</time>
		</trkpt>

		<trkpt lat="42.863352" lon="-5.361877">
			<ele>1339.000000</ele>
		<time>2015-11-30T04:28:27Z</time>
		</trkpt>

		<trkpt lat="42.863323" lon="-5.362184">
			<ele>1335.000000</ele>
		<time>2015-11-30T04:28:30Z</time>
		</trkpt>

		<trkpt lat="42.863300" lon="-5.362526">
			<ele>1330.000000</ele>
		<time>2015-11-30T04:28:33Z</time>
		</trkpt>

		<trkpt lat="42.863155" lon="-5.362836">
			<ele>1325.000000</ele>
		<time>2015-11-30T04:28:36Z</time>
		</trkpt>

		<trkpt lat="42.862289" lon="-5.362795">
			<ele>1284.000000</ele>
		<time>2015-11-30T04:29:09Z</time>
		</trkpt>

		<trkpt lat="42.862019" lon="-5.362736">
			<ele>1274.000000</ele>
		<time>2015-11-30T04:29:12Z</time>
		</trkpt>

		<trkpt lat="42.861759" lon="-5.362693">
			<ele>1272.000000</ele>
		<time>2015-11-30T04:29:15Z</time>
		</trkpt>

		<trkpt lat="42.861516" lon="-5.362549">
			<ele>1268.000000</ele>
		<time>2015-11-30T04:29:18Z</time>
		</trkpt>

		<trkpt lat="42.861400" lon="-5.362236">
			<ele>1265.000000</ele>
		<time>2015-11-30T04:29:21Z</time>
		</trkpt>

		<trkpt lat="42.861374" lon="-5.361908">
			<ele>1260.000000</ele>
		<time>2015-11-30T04:29:24Z</time>
		</trkpt>

		<trkpt lat="42.861359" lon="-5.361565">
			<ele>1255.000000</ele>
		<time>2015-11-30T04:29:27Z</time>
		</trkpt>

		<trkpt lat="42.861330" lon="-5.361229">
			<ele>1252.000000</ele>
		<time>2015-11-30T04:29:30Z</time>
		</trkpt>

		<trkpt lat="42.861359" lon="-5.360854">
			<ele>1247.000000</ele>
		<time>2015-11-30T04:29:33Z</time>
		</trkpt>

		<trkpt lat="42.861375" lon="-5.360482">
			<ele>1242.000000</ele>
		<time>2015-11-30T04:29:36Z</time>
		</trkpt>

		<trkpt lat="42.861333" lon="-5.360170">
			<ele>1248.000000</ele>
		<time>2015-11-30T04:29:39Z</time>
		</trkpt>

		<trkpt lat="42.861165" lon="-5.360024">
			<ele>1248.000000</ele>
		<time>2015-11-30T04:29:42Z</time>
		</trkpt>

		<trkpt lat="42.860957" lon="-5.360127">
			<ele>1247.000000</ele>
		<time>2015-11-30T04:29:45Z</time>
		</trkpt>

		<trkpt lat="42.860828" lon="-5.360441">
			<ele>1247.000000</ele>
		<time>2015-11-30T04:29:48Z</time>
		</trkpt>

		<trkpt lat="42.860716" lon="-5.360742">
			<ele>1245.000000</ele>
		<time>2015-11-30T04:29:51Z</time>
		</trkpt>

		<trkpt lat="42.860602" lon="-5.361047">
			<ele>1244.000000</ele>
		<time>2015-11-30T04:29:54Z</time>
		</trkpt>

		<trkpt lat="42.860430" lon="-5.361257">
			<ele>1242.000000</ele>
		<time>2015-11-30T04:29:57Z</time>
		</trkpt>

		<trkpt lat="42.860204" lon="-5.361341">
			<ele>1240.000000</ele>
		<time>2015-11-30T04:30:00Z</time>
		</trkpt>

		<trkpt lat="42.859994" lon="-5.361312">
			<ele>1240.000000</ele>
		<time>2015-11-30T04:30:03Z</time>
		</trkpt>

		<trkpt lat="42.859834" lon="-5.361084">
			<ele>1236.000000</ele>
		<time>2015-11-30T04:30:06Z</time>
		</trkpt>

		<trkpt lat="42.859828" lon="-5.360784">
			<ele>1233.000000</ele>
		<time>2015-11-30T04:30:09Z</time>
		</trkpt>

		<trkpt lat="42.859930" lon="-5.360500">
			<ele>1232.000000</ele>
		<time>2015-11-30T04:30:12Z</time>
		</trkpt>

		<trkpt lat="42.860115" lon="-5.360300">
			<ele>1226.000000</ele>
		<time>2015-11-30T04:30:15Z</time>
		</trkpt>

		<trkpt lat="42.860309" lon="-5.360138">
			<ele>1226.000000</ele>
		<time>2015-11-30T04:30:18Z</time>
		</trkpt>

		<trkpt lat="42.860442" lon="-5.359859">
			<ele>1228.000000</ele>
		<time>2015-11-30T04:30:21Z</time>
		</trkpt>

		<trkpt lat="42.860441" lon="-5.359526">
			<ele>1198.000000</ele>
		<time>2015-11-30T04:30:24Z</time>
		</trkpt>

		<trkpt lat="42.860299" lon="-5.359354">
			<ele>1186.000000</ele>
		<time>2015-11-30T04:30:27Z</time>
		</trkpt>

		<trkpt lat="42.860058" lon="-5.359411">
			<ele>1180.000000</ele>
		<time>2015-11-30T04:30:30Z</time>
		</trkpt>

		<trkpt lat="42.859861" lon="-5.359649">
			<ele>1177.000000</ele>
		<time>2015-11-30T04:30:33Z</time>
		</trkpt>

		<trkpt lat="42.859668" lon="-5.359887">
			<ele>1173.000000</ele>
		<time>2015-11-30T04:30:36Z</time>
		</trkpt>

		<trkpt lat="42.859443" lon="-5.360051">
			<ele>1171.000000</ele>
		<time>2015-11-30T04:30:39Z</time>
		</trkpt>

		<trkpt lat="42.859206" lon="-5.360061">
			<ele>1169.000000</ele>
		<time>2015-11-30T04:30:42Z</time>
		</trkpt>

		<trkpt lat="42.859062" lon="-5.359816">
			<ele>1159.000000</ele>
		<time>2015-11-30T04:30:45Z</time>
		</trkpt>

		<trkpt lat="42.859204" lon="-5.359573">
			<ele>1155.000000</ele>
		<time>2015-11-30T04:30:48Z</time>
		</trkpt>

		<trkpt lat="42.859444" lon="-5.359517">
			<ele>1153.000000</ele>
		<time>2015-11-30T04:30:51Z</time>
		</trkpt>

		<trkpt lat="42.859630" lon="-5.359283">
			<ele>1148.000000</ele>
		<time>2015-11-30T04:30:54Z</time>
		</trkpt>

		<trkpt lat="42.859680" lon="-5.358949">
			<ele>1143.000000</ele>
		<time>2015-11-30T04:30:57Z</time>
		</trkpt>

		<trkpt lat="42.859714" lon="-5.358650">
			<ele>1137.000000</ele>
		<time>2015-11-30T04:31:00Z</time>
		</trkpt>

		<trkpt lat="42.859605" lon="-5.358399">
			<ele>1133.000000</ele>
		<time>2015-11-30T04:31:03Z</time>
		</trkpt>

		<trkpt lat="42.859362" lon="-5.358441">
			<ele>1130.000000</ele>
		<time>2015-11-30T04:31:06Z</time>
		</trkpt>

		<trkpt lat="42.859170" lon="-5.358620">
			<ele>1128.000000</ele>
		<time>2015-11-30T04:31:09Z</time>
		</trkpt>

		<trkpt lat="42.858950" lon="-5.358767">
			<ele>1124.000000</ele>
		<time>2015-11-30T04:31:12Z</time>
		</trkpt>

		<trkpt lat="42.858737" lon="-5.358802">
			<ele>1120.000000</ele>
		<time>2015-11-30T04:31:15Z</time>
		</trkpt>

		<trkpt lat="42.858566" lon="-5.358542">
			<ele>1113.000000</ele>
		<time>2015-11-30T04:31:18Z</time>
		</trkpt>

		<trkpt lat="42.858577" lon="-5.358204">
			<ele>1108.000000</ele>
		<time>2015-11-30T04:31:21Z</time>
		</trkpt>

		<trkpt lat="42.858433" lon="-5.357948">
			<ele>1100.000000</ele>
		<time>2015-11-30T04:31:24Z</time>
		</trkpt>

		<trkpt lat="42.858212" lon="-5.357782">
			<ele>1098.000000</ele>
		<time>2015-11-30T04:31:27Z</time>
		</trkpt>

		<trkpt lat="42.858111" lon="-5.357661">
			<ele>1097.000000</ele>
		<time>2015-11-30T04:31:30Z</time>
		</trkpt>

		<trkpt lat="42.858079" lon="-5.357595">
			<ele>1097.000000</ele>
		<time>2015-11-30T04:31:55Z</time>
		</trkpt>

		<trkpt lat="42.858101" lon="-5.357622">
			<ele>1097.000000</ele>
		<time>2015-11-30T04:32:23Z</time>
		</trkpt>

		<trkpt lat="42.858082" lon="-5.357669">
			<ele>1098.000000</ele>
		<time>2015-11-30T04:32:26Z</time>
		</trkpt>

		<trkpt lat="42.858067" lon="-5.357745">
			<ele>1097.000000</ele>
		<time>2015-11-30T04:32:32Z</time>
		</trkpt>

		<trkpt lat="42.858039" lon="-5.357725">
			<ele>1096.000000</ele>
		<time>2015-11-30T04:32:35Z</time>
		</trkpt>

		<trkpt lat="42.858028" lon="-5.357675">
			<ele>1096.000000</ele>
		<time>2015-11-30T04:32:38Z</time>
		</trkpt>

	</trkseg>
</trk>
</gpx>

